createdAt,value
2019-01-31T00:00:01.695Z,10.80
2019-01-31T00:02:27.912Z,10.80
2019-01-31T00:04:54.131Z,10.80
2019-01-31T00:07:20.372Z,10.80
2019-01-31T00:09:46.609Z,10.80
2019-01-31T00:12:12.837Z,10.80
2019-01-31T00:14:39.051Z,10.80
2019-01-31T00:17:05.280Z,10.70
2019-01-31T00:19:31.503Z,10.70
2019-01-31T00:21:57.747Z,10.70
2019-01-31T00:24:24.022Z,10.60
2019-01-31T00:26:50.412Z,10.60
2019-01-31T00:29:16.641Z,10.60
2019-01-31T00:31:42.893Z,10.60
2019-01-31T00:34:09.082Z,10.60
2019-01-31T00:36:35.368Z,10.70
2019-01-31T00:39:01.805Z,10.70
2019-01-31T00:41:28.188Z,10.80
2019-01-31T00:43:54.408Z,10.90
2019-01-31T00:46:20.651Z,11.00
2019-01-31T00:48:46.863Z,11.10
2019-01-31T00:51:13.116Z,11.20
2019-01-31T00:53:39.529Z,11.20
2019-01-31T00:56:05.744Z,11.40
2019-01-31T00:58:31.984Z,11.50
2019-01-31T01:00:58.211Z,11.60
2019-01-31T01:03:26.061Z,11.70
2019-01-31T01:05:52.326Z,11.70
2019-01-31T01:08:18.793Z,11.80
2019-01-31T01:10:45.179Z,11.80
2019-01-31T01:13:11.397Z,11.90
2019-01-31T01:15:37.685Z,11.90
2019-01-31T01:18:03.881Z,12.00
2019-01-31T01:20:31.723Z,12.10
2019-01-31T01:22:57.948Z,12.10
2019-01-31T01:25:24.181Z,12.10
2019-01-31T01:27:50.416Z,12.20
2019-01-31T01:30:16.634Z,12.30
2019-01-31T01:32:42.867Z,12.30
2019-01-31T01:35:09.099Z,12.40
2019-01-31T01:37:35.345Z,12.40
2019-01-31T01:40:01.749Z,12.40
2019-01-31T01:42:27.973Z,12.50
2019-01-31T01:44:54.224Z,12.50
2019-01-31T01:47:20.434Z,12.50
2019-01-31T01:49:46.650Z,12.50
2019-01-31T01:52:12.951Z,12.60
2019-01-31T01:54:39.334Z,12.60
2019-01-31T01:57:05.569Z,12.70
2019-01-31T01:59:33.474Z,12.50
2019-01-31T02:01:59.850Z,12.60
2019-01-31T02:04:26.090Z,12.50
2019-01-31T02:06:52.319Z,12.40
2019-01-31T02:09:29.712Z,12.40
2019-01-31T02:11:45.792Z,12.40
2019-01-31T02:14:12.018Z,12.30
2019-01-31T02:16:38.251Z,12.40
2019-01-31T02:19:06.132Z,12.30
2019-01-31T02:21:32.544Z,12.30
2019-01-31T02:23:58.803Z,12.30
2019-01-31T02:26:25.003Z,12.30
2019-01-31T02:28:51.255Z,12.30
2019-01-31T02:31:17.455Z,12.20
2019-01-31T02:33:43.654Z,12.20
2019-01-31T02:36:09.914Z,12.30
2019-01-31T02:38:36.135Z,12.20
2019-01-31T02:41:02.300Z,12.20
2019-01-31T02:43:29.409Z,12.20
2019-01-31T02:45:57.493Z,12.10
2019-01-31T02:48:23.726Z,12.20
2019-01-31T02:50:49.943Z,12.10
2019-01-31T02:53:16.183Z,12.10
2019-01-31T02:55:42.400Z,12.10
2019-01-31T02:58:08.624Z,12.10
2019-01-31T03:00:34.873Z,12.10
2019-01-31T03:03:01.084Z,12.10
2019-01-31T03:05:27.348Z,12.10
2019-01-31T03:07:53.743Z,12.10
2019-01-31T03:10:19.962Z,12.10
2019-01-31T03:12:46.176Z,12.10
2019-01-31T03:15:12.420Z,12.10
2019-01-31T03:17:38.667Z,12.00
2019-01-31T03:20:06.521Z,12.00
2019-01-31T03:22:32.752Z,12.00
2019-01-31T03:24:58.984Z,12.10
2019-01-31T03:27:26.027Z,12.00
2019-01-31T03:29:52.251Z,12.00
2019-01-31T03:32:18.469Z,12.00
2019-01-31T03:34:44.695Z,12.00
2019-01-31T03:37:10.949Z,12.00
2019-01-31T03:39:37.175Z,12.00
2019-01-31T03:42:03.415Z,12.00
2019-01-31T03:44:29.836Z,12.00
2019-01-31T03:46:56.060Z,12.00
2019-01-31T03:49:22.288Z,12.00
2019-01-31T03:51:48.511Z,12.00
2019-01-31T03:54:14.744Z,12.00
2019-01-31T03:56:40.975Z,12.00
2019-01-31T03:59:08.829Z,12.00
2019-01-31T04:01:35.059Z,12.00
2019-01-31T04:04:01.287Z,12.00
2019-01-31T04:06:27.512Z,12.00
2019-01-31T04:08:54.347Z,12.00
2019-01-31T04:11:20.607Z,12.00
2019-01-31T04:13:47.673Z,12.00
2019-01-31T04:16:13.940Z,11.90
2019-01-31T04:18:40.316Z,11.90
2019-01-31T04:21:07.785Z,11.90
2019-01-31T04:23:33.992Z,11.90
2019-01-31T04:26:00.216Z,11.90
2019-01-31T04:28:26.435Z,11.90
2019-01-31T04:30:52.663Z,11.90
2019-01-31T04:33:18.895Z,11.90
2019-01-31T04:35:45.567Z,11.90
2019-01-31T04:38:11.756Z,11.90
2019-01-31T04:40:37.991Z,11.90
2019-01-31T04:43:04.474Z,11.90
2019-01-31T04:45:31.588Z,11.90
2019-01-31T04:47:57.915Z,11.90
2019-01-31T04:50:24.385Z,11.90
2019-01-31T04:52:50.771Z,11.90
2019-01-31T04:55:17.000Z,11.90
2019-01-31T04:57:43.241Z,11.90
2019-01-31T05:00:10.936Z,11.90
2019-01-31T05:02:37.312Z,11.90
2019-01-31T05:05:03.487Z,11.90
2019-01-31T05:07:30.595Z,11.90
2019-01-31T05:09:56.819Z,11.90
2019-01-31T05:12:23.048Z,11.90
2019-01-31T05:14:49.279Z,11.90
2019-01-31T05:17:15.501Z,12.00
2019-01-31T05:19:41.728Z,12.00
2019-01-31T05:22:07.960Z,12.00
2019-01-31T05:24:34.206Z,12.00
2019-01-31T05:27:00.426Z,12.00
2019-01-31T05:29:26.656Z,12.00
2019-01-31T05:31:53.104Z,12.00
2019-01-31T05:34:19.511Z,12.00
2019-01-31T05:36:46.148Z,12.00
2019-01-31T05:39:12.398Z,12.00
2019-01-31T05:41:38.642Z,11.90
2019-01-31T05:44:05.031Z,11.90
2019-01-31T05:46:31.542Z,11.90
2019-01-31T05:48:57.912Z,11.90
2019-01-31T05:51:24.123Z,11.90
2019-01-31T05:53:50.363Z,11.90
2019-01-31T05:56:17.048Z,11.90
2019-01-31T05:58:43.436Z,11.90
2019-01-31T06:01:11.290Z,11.90
2019-01-31T06:03:37.511Z,11.90
2019-01-31T06:06:03.694Z,11.90
2019-01-31T06:08:30.819Z,11.90
2019-01-31T06:11:07.255Z,11.90
2019-01-31T06:13:23.510Z,11.90
2019-01-31T06:15:50.482Z,11.90
2019-01-31T06:18:16.739Z,11.90
2019-01-31T06:20:42.909Z,11.90
2019-01-31T06:23:09.859Z,11.90
2019-01-31T06:25:36.863Z,11.90
2019-01-31T06:28:03.271Z,11.90
2019-01-31T06:30:29.529Z,11.90
2019-01-31T06:32:55.738Z,11.90
2019-01-31T06:35:22.101Z,11.90
2019-01-31T06:37:48.406Z,11.90
2019-01-31T06:40:14.632Z,11.90
2019-01-31T06:42:40.872Z,11.90
2019-01-31T06:45:08.730Z,11.90
2019-01-31T06:47:34.959Z,11.90
2019-01-31T06:50:01.219Z,11.90
2019-01-31T06:52:27.366Z,11.90
2019-01-31T06:54:53.644Z,11.90
2019-01-31T06:57:19.859Z,11.90
2019-01-31T06:59:46.144Z,11.90
2019-01-31T07:02:12.529Z,11.90
2019-01-31T07:04:38.767Z,11.90
2019-01-31T07:07:04.982Z,11.90
2019-01-31T07:09:31.201Z,11.90
2019-01-31T07:11:57.449Z,11.90
2019-01-31T07:14:23.698Z,11.90
2019-01-31T07:16:49.879Z,11.90
2019-01-31T07:19:16.172Z,11.90
2019-01-31T07:21:42.561Z,11.90
2019-01-31T07:24:08.792Z,11.90
2019-01-31T07:26:35.826Z,11.90
2019-01-31T07:29:02.043Z,11.80
2019-01-31T07:31:28.271Z,11.90
2019-01-31T07:33:54.515Z,11.90
2019-01-31T07:36:20.770Z,11.90
2019-01-31T07:38:47.176Z,11.90
2019-01-31T07:41:13.386Z,11.80
2019-01-31T07:43:39.641Z,11.80
2019-01-31T07:46:05.852Z,11.80
2019-01-31T07:48:32.075Z,11.80
2019-01-31T07:50:58.312Z,11.80
2019-01-31T07:53:24.547Z,11.80
2019-01-31T07:55:50.776Z,11.80
2019-01-31T07:58:16.991Z,11.80
2019-01-31T08:00:43.277Z,11.80
2019-01-31T08:03:09.681Z,11.80
2019-01-31T08:05:36.081Z,11.80
2019-01-31T08:08:02.319Z,11.80
2019-01-31T08:10:28.545Z,11.80
2019-01-31T08:12:54.774Z,11.80
2019-01-31T08:15:21.004Z,11.80
2019-01-31T08:17:47.241Z,11.80
2019-01-31T08:20:13.717Z,11.80
2019-01-31T08:22:40.087Z,11.80
2019-01-31T08:25:06.350Z,11.80
2019-01-31T08:27:32.783Z,11.80
2019-01-31T08:29:58.976Z,11.80
2019-01-31T08:32:25.471Z,11.80
2019-01-31T08:34:51.860Z,11.70
2019-01-31T08:37:18.131Z,11.80
2019-01-31T08:39:44.504Z,11.80
2019-01-31T08:42:10.742Z,11.80
2019-01-31T08:44:36.971Z,11.80
2019-01-31T08:47:03.210Z,11.80
2019-01-31T08:49:29.437Z,11.80
2019-01-31T08:51:55.649Z,11.80
2019-01-31T08:54:21.868Z,11.70
2019-01-31T08:56:48.108Z,11.80
2019-01-31T08:59:14.528Z,11.80
2019-01-31T09:01:40.771Z,11.80
2019-01-31T09:04:07.000Z,11.80
2019-01-31T09:06:33.231Z,11.70
2019-01-31T09:08:59.451Z,11.80
2019-01-31T09:11:25.952Z,11.80
2019-01-31T09:13:52.340Z,11.80
2019-01-31T09:16:19.374Z,11.70
2019-01-31T09:18:45.593Z,11.70
2019-01-31T09:21:11.828Z,11.70
2019-01-31T09:23:38.031Z,11.70
2019-01-31T09:26:04.235Z,11.70
2019-01-31T09:28:30.535Z,11.70
2019-01-31T09:30:56.936Z,11.70
2019-01-31T09:33:23.222Z,11.70
2019-01-31T09:35:49.605Z,11.70
2019-01-31T09:38:17.460Z,11.70
2019-01-31T09:40:43.692Z,11.70
2019-01-31T09:43:09.936Z,11.70
2019-01-31T09:45:36.161Z,11.70
2019-01-31T09:48:02.601Z,11.70
2019-01-31T09:50:30.483Z,11.70
2019-01-31T09:52:56.667Z,11.70
2019-01-31T09:55:22.902Z,11.70
2019-01-31T09:57:49.125Z,11.70
2019-01-31T10:00:26.816Z,11.70
2019-01-31T10:02:41.815Z,11.70
2019-01-31T10:05:08.015Z,11.70
2019-01-31T10:07:34.307Z,11.70
2019-01-31T10:10:00.743Z,11.70
2019-01-31T10:12:37.554Z,11.70
2019-01-31T10:14:53.609Z,11.70
2019-01-31T10:17:20.020Z,11.70
2019-01-31T10:19:46.438Z,11.70
2019-01-31T10:22:14.268Z,11.70
2019-01-31T10:24:40.644Z,11.70
2019-01-31T10:27:06.950Z,11.70
2019-01-31T10:29:33.180Z,11.70
2019-01-31T10:31:59.447Z,11.70
2019-01-31T10:34:25.838Z,11.70
2019-01-31T10:36:52.052Z,11.70
2019-01-31T10:39:18.280Z,11.70
2019-01-31T10:41:44.546Z,11.70
2019-01-31T10:44:10.740Z,11.70
2019-01-31T10:46:36.964Z,11.70
2019-01-31T10:49:03.190Z,11.70
2019-01-31T10:51:29.431Z,11.70
2019-01-31T10:53:55.647Z,11.70
2019-01-31T10:56:21.875Z,11.60
2019-01-31T10:58:48.113Z,11.70
2019-01-31T11:01:14.340Z,11.60
2019-01-31T11:03:40.566Z,11.70
2019-01-31T11:06:06.810Z,11.70
2019-01-31T11:08:33.008Z,11.60
2019-01-31T11:10:59.254Z,11.70
2019-01-31T11:13:25.478Z,11.60
2019-01-31T11:15:51.710Z,11.60
2019-01-31T11:18:17.922Z,11.60
2019-01-31T11:20:44.158Z,11.60
2019-01-31T11:23:10.398Z,11.60
2019-01-31T11:25:36.620Z,11.60
2019-01-31T11:28:02.832Z,11.60
2019-01-31T11:30:29.078Z,11.60
2019-01-31T11:32:55.301Z,11.60
2019-01-31T11:35:21.542Z,11.60
2019-01-31T11:37:49.395Z,11.60
2019-01-31T11:40:15.669Z,11.60
2019-01-31T11:42:41.848Z,11.60
2019-01-31T11:45:08.136Z,11.60
2019-01-31T11:47:34.521Z,11.60
2019-01-31T11:50:00.730Z,11.60
2019-01-31T11:52:26.971Z,11.60
2019-01-31T11:54:55.215Z,11.60
2019-01-31T11:57:19.616Z,11.60
2019-01-31T11:59:45.912Z,11.60
2019-01-31T12:02:12.274Z,11.60
2019-01-31T12:04:38.510Z,11.60
2019-01-31T12:07:04.748Z,11.60
2019-01-31T12:09:30.968Z,11.60
2019-01-31T12:11:57.192Z,11.60
2019-01-31T12:14:23.431Z,11.60
2019-01-31T12:16:49.860Z,11.60
2019-01-31T12:19:16.091Z,11.60
2019-01-31T12:21:42.268Z,11.60
2019-01-31T12:24:16.179Z,11.60
2019-01-31T12:26:34.963Z,11.60
2019-01-31T12:29:01.212Z,11.60
2019-01-31T12:31:28.249Z,11.60
2019-01-31T12:33:54.474Z,11.60
2019-01-31T12:36:20.704Z,11.60
2019-01-31T12:38:46.943Z,11.60
2019-01-31T12:41:13.172Z,11.60
2019-01-31T12:43:39.385Z,11.60
2019-01-31T12:46:05.637Z,11.60
2019-01-31T12:48:31.853Z,11.60
2019-01-31T12:50:58.027Z,11.60
2019-01-31T12:53:24.839Z,11.60
2019-01-31T12:55:51.992Z,11.60
2019-01-31T12:58:18.399Z,11.60
2019-01-31T13:00:44.711Z,11.50
2019-01-31T13:03:11.060Z,11.60
2019-01-31T13:05:37.326Z,11.60
2019-01-31T13:08:03.722Z,11.60
2019-01-31T13:10:29.950Z,11.50
2019-01-31T13:12:56.275Z,11.60
2019-01-31T13:15:22.609Z,11.60
2019-01-31T13:17:48.867Z,11.50
2019-01-31T13:20:15.273Z,11.60
2019-01-31T13:22:41.499Z,11.60
2019-01-31T13:25:07.739Z,11.50
2019-01-31T13:27:33.947Z,11.60
2019-01-31T13:30:00.328Z,11.60
2019-01-31T13:32:26.622Z,11.60
2019-01-31T13:34:52.836Z,11.60
2019-01-31T13:37:19.062Z,11.50
2019-01-31T13:39:45.321Z,11.50
2019-01-31T13:42:11.538Z,11.60
2019-01-31T13:44:37.760Z,11.60
2019-01-31T13:47:04.035Z,11.50
2019-01-31T13:49:30.251Z,11.50
2019-01-31T13:51:56.650Z,11.50
2019-01-31T13:54:22.868Z,11.50
2019-01-31T13:56:49.154Z,11.60
2019-01-31T13:59:15.538Z,11.60
2019-01-31T14:01:41.779Z,11.50
2019-01-31T14:04:08.815Z,11.50
2019-01-31T14:06:35.060Z,11.50
2019-01-31T14:09:01.248Z,11.50
2019-01-31T14:11:27.481Z,11.50
2019-01-31T14:13:53.734Z,11.50
2019-01-31T14:16:19.960Z,11.50
2019-01-31T14:18:46.194Z,11.50
2019-01-31T14:21:12.426Z,11.50
2019-01-31T14:23:38.666Z,11.50
2019-01-31T14:26:05.321Z,11.50
2019-01-31T14:28:31.698Z,11.50
2019-01-31T14:30:57.930Z,11.50
2019-01-31T14:33:24.174Z,11.50
2019-01-31T14:35:50.383Z,11.50
2019-01-31T14:38:16.670Z,11.50
2019-01-31T14:40:43.044Z,11.50
2019-01-31T14:43:09.278Z,11.50
2019-01-31T14:45:35.710Z,11.50
2019-01-31T14:48:01.949Z,11.50
2019-01-31T14:50:28.373Z,11.60
2019-01-31T14:52:56.943Z,11.50
2019-01-31T14:55:20.852Z,11.50
2019-01-31T14:57:47.070Z,11.50
2019-01-31T15:00:13.284Z,11.50
2019-01-31T15:02:39.503Z,11.50
2019-01-31T15:05:05.754Z,11.50
2019-01-31T15:07:31.985Z,11.50
2019-01-31T15:09:58.183Z,11.50
2019-01-31T15:12:24.433Z,11.50
2019-01-31T15:14:50.652Z,11.50
2019-01-31T15:17:16.872Z,11.50
2019-01-31T15:19:43.108Z,11.50
2019-01-31T15:22:09.324Z,11.50
2019-01-31T15:24:35.564Z,11.50
2019-01-31T15:27:01.787Z,11.50
2019-01-31T15:29:27.968Z,11.50
2019-01-31T15:31:54.242Z,11.50
2019-01-31T15:34:20.464Z,11.50
2019-01-31T15:36:46.689Z,11.50
2019-01-31T15:39:12.946Z,11.50
2019-01-31T15:41:39.363Z,11.50
2019-01-31T15:44:05.614Z,11.50
2019-01-31T15:46:31.855Z,11.50
2019-01-31T15:48:58.033Z,11.50
2019-01-31T15:51:24.325Z,11.50
2019-01-31T15:53:50.738Z,11.50
2019-01-31T15:56:16.988Z,11.50
2019-01-31T15:58:43.375Z,11.50
2019-01-31T16:01:11.220Z,11.50
2019-01-31T16:03:37.529Z,11.50
2019-01-31T16:06:03.739Z,11.50
2019-01-31T16:08:29.934Z,11.50
2019-01-31T16:10:56.168Z,11.50
2019-01-31T16:13:22.434Z,11.50
2019-01-31T16:15:48.904Z,11.50
2019-01-31T16:18:15.247Z,11.50
2019-01-31T16:20:41.482Z,11.50
2019-01-31T16:23:09.326Z,11.50
2019-01-31T16:25:35.563Z,11.50
2019-01-31T16:28:01.784Z,11.50
2019-01-31T16:30:28.085Z,11.50
2019-01-31T16:32:54.427Z,11.50
2019-01-31T16:35:20.674Z,11.50
2019-01-31T16:37:47.100Z,11.50
2019-01-31T16:40:13.342Z,11.50
2019-01-31T16:42:39.590Z,11.50
2019-01-31T16:45:07.096Z,11.50
2019-01-31T16:47:32.423Z,11.50
2019-01-31T16:49:58.680Z,11.50
2019-01-31T16:52:26.640Z,11.50
2019-01-31T16:54:52.964Z,11.50
2019-01-31T16:57:19.196Z,11.50
2019-01-31T16:59:45.433Z,11.40
2019-01-31T17:02:11.714Z,11.40
2019-01-31T17:04:38.077Z,11.40
2019-01-31T17:07:04.305Z,11.40
2019-01-31T17:09:30.534Z,11.50
2019-01-31T17:11:56.763Z,11.40
2019-01-31T17:14:22.995Z,11.50
2019-01-31T17:16:49.250Z,11.60
2019-01-31T17:19:15.454Z,11.60
2019-01-31T17:21:41.663Z,11.60
2019-01-31T17:24:07.914Z,11.60
2019-01-31T17:26:34.132Z,11.60
2019-01-31T17:29:00.364Z,11.60
2019-01-31T17:31:26.578Z,11.70
2019-01-31T17:33:52.834Z,11.60
2019-01-31T17:36:19.243Z,11.70
2019-01-31T17:38:45.475Z,11.60
2019-01-31T17:41:11.697Z,11.60
2019-01-31T17:43:37.927Z,11.60
2019-01-31T17:46:04.167Z,11.60
2019-01-31T17:48:35.544Z,11.50
2019-01-31T17:51:00.335Z,11.50
2019-01-31T17:53:26.540Z,11.50
2019-01-31T17:55:54.460Z,11.60
2019-01-31T17:58:20.816Z,11.60
2019-01-31T18:00:47.055Z,11.70
2019-01-31T18:03:13.266Z,11.70
2019-01-31T18:05:40.352Z,11.70
2019-01-31T18:08:09.226Z,11.70
2019-01-31T18:10:33.198Z,11.70
2019-01-31T18:12:59.436Z,11.70
2019-01-31T18:15:25.676Z,11.70
2019-01-31T18:17:52.079Z,11.60
2019-01-31T18:20:18.330Z,11.60
2019-01-31T18:22:44.547Z,11.60
2019-01-31T18:25:10.787Z,11.60
2019-01-31T18:27:37.052Z,11.60
2019-01-31T18:30:03.434Z,11.70
2019-01-31T18:32:31.306Z,11.70
2019-01-31T18:34:57.523Z,11.70
2019-01-31T18:37:23.777Z,11.70
2019-01-31T18:39:51.009Z,11.80
2019-01-31T18:42:17.248Z,11.70
2019-01-31T18:44:43.836Z,11.80
2019-01-31T18:47:09.899Z,11.80
2019-01-31T18:49:36.597Z,11.80
2019-01-31T18:52:03.809Z,11.80
2019-01-31T18:54:30.271Z,11.80
2019-01-31T18:56:56.666Z,11.80
2019-01-31T18:59:22.885Z,11.80
2019-01-31T19:01:49.131Z,11.80
2019-01-31T19:04:17.699Z,11.80
2019-01-31T19:06:44.015Z,11.80
2019-01-31T19:09:10.256Z,11.80
2019-01-31T19:11:36.484Z,11.80
2019-01-31T19:14:02.703Z,11.80
2019-01-31T19:16:28.987Z,11.80
2019-01-31T19:18:55.418Z,11.80
2019-01-31T19:21:21.804Z,11.80
2019-01-31T19:23:48.027Z,11.80
2019-01-31T19:26:14.271Z,11.80
2019-01-31T19:28:40.537Z,11.80
2019-01-31T19:31:06.923Z,11.80
2019-01-31T19:33:33.401Z,11.80
2019-01-31T19:35:59.771Z,11.80
2019-01-31T19:38:26.008Z,11.80
2019-01-31T19:40:53.891Z,11.80
2019-01-31T19:43:20.117Z,11.80
2019-01-31T19:45:47.982Z,11.80
2019-01-31T19:48:14.249Z,11.80
2019-01-31T19:50:43.367Z,11.80
2019-01-31T19:53:07.670Z,11.80
2019-01-31T19:55:33.908Z,11.80
2019-01-31T19:58:00.131Z,11.80
2019-01-31T20:00:26.379Z,11.80
2019-01-31T20:02:54.261Z,11.80
2019-01-31T20:05:20.467Z,11.80
2019-01-31T20:07:46.675Z,11.80
2019-01-31T20:10:12.922Z,11.80
2019-01-31T20:12:39.152Z,11.80
2019-01-31T20:15:05.373Z,11.80
2019-01-31T20:17:31.584Z,11.80
2019-01-31T20:19:57.851Z,11.80
2019-01-31T20:22:24.052Z,11.80
2019-01-31T20:24:50.283Z,11.80
2019-01-31T20:27:16.513Z,11.80
2019-01-31T20:29:42.747Z,11.80
2019-01-31T20:32:08.951Z,11.80
2019-01-31T20:34:37.851Z,11.90
2019-01-31T20:37:01.648Z,11.80
2019-01-31T20:39:27.880Z,11.90
2019-01-31T20:41:54.711Z,11.90
2019-01-31T20:44:20.511Z,11.90
2019-01-31T20:46:46.743Z,11.90
2019-01-31T20:49:12.974Z,11.90
2019-01-31T20:51:39.192Z,11.90
2019-01-31T20:54:05.411Z,11.90
2019-01-31T20:56:33.575Z,11.90
2019-01-31T20:58:58.092Z,11.90
2019-01-31T21:01:24.328Z,11.90
2019-01-31T21:03:50.535Z,11.90
2019-01-31T21:06:16.768Z,11.90
2019-01-31T21:08:42.996Z,11.90
2019-01-31T21:11:09.225Z,11.90
2019-01-31T21:13:35.456Z,11.90
2019-01-31T21:16:01.902Z,11.90
2019-01-31T21:18:28.119Z,11.90
2019-01-31T21:20:54.366Z,11.90
2019-01-31T21:23:21.608Z,11.90
2019-01-31T21:25:47.830Z,11.90
2019-01-31T21:28:14.060Z,11.90
2019-01-31T21:30:40.300Z,11.90
2019-01-31T21:33:06.510Z,11.90
2019-01-31T21:35:32.731Z,11.90
2019-01-31T21:37:58.992Z,11.90
2019-01-31T21:40:25.248Z,11.90
2019-01-31T21:42:51.624Z,11.90
2019-01-31T21:45:17.850Z,11.90
2019-01-31T21:47:44.071Z,11.90
2019-01-31T21:50:11.957Z,11.90
2019-01-31T21:52:38.193Z,11.90
2019-01-31T21:55:06.036Z,11.90
2019-01-31T21:57:32.291Z,11.90
2019-01-31T21:59:58.697Z,11.90
2019-01-31T22:02:25.140Z,11.90
2019-01-31T22:04:51.577Z,11.90
2019-01-31T22:07:17.803Z,11.90
2019-01-31T22:09:44.026Z,11.90
2019-01-31T22:12:10.259Z,11.90
2019-01-31T22:14:37.111Z,11.90
2019-01-31T22:17:13.898Z,11.90
2019-01-31T22:19:29.756Z,11.90
2019-01-31T22:21:55.951Z,11.90
2019-01-31T22:24:22.234Z,11.90
2019-01-31T22:26:49.260Z,11.90
2019-01-31T22:29:15.489Z,11.90
2019-01-31T22:31:41.747Z,11.90
2019-01-31T22:34:08.159Z,11.90
2019-01-31T22:36:34.567Z,11.90
2019-01-31T22:39:00.871Z,11.90
2019-01-31T22:41:27.294Z,11.80
2019-01-31T22:43:53.683Z,11.90
2019-01-31T22:46:21.252Z,11.90
2019-01-31T22:48:46.336Z,11.90
2019-01-31T22:51:12.572Z,11.90
2019-01-31T22:53:38.787Z,11.90
2019-01-31T22:56:05.012Z,11.90
2019-01-31T22:58:31.277Z,11.90
2019-01-31T23:00:57.518Z,11.90
2019-01-31T23:03:23.935Z,11.90
2019-01-31T23:05:51.802Z,11.80
2019-01-31T23:08:18.226Z,11.80
2019-01-31T23:10:44.433Z,11.90
2019-01-31T23:13:10.675Z,11.90
2019-01-31T23:15:37.098Z,11.80
2019-01-31T23:18:03.319Z,11.80
2019-01-31T23:20:29.539Z,11.90
2019-01-31T23:22:55.763Z,11.80
2019-01-31T23:25:22.055Z,11.80
2019-01-31T23:27:48.440Z,11.90
2019-01-31T23:30:14.667Z,11.90
2019-01-31T23:32:40.887Z,11.90
2019-01-31T23:35:07.125Z,11.90
2019-01-31T23:37:33.387Z,11.90
2019-01-31T23:39:59.595Z,11.90
2019-01-31T23:42:25.806Z,11.90
2019-01-31T23:44:52.092Z,11.90
2019-01-31T23:47:18.474Z,11.90
2019-01-31T23:49:44.687Z,11.90
2019-01-31T23:52:10.935Z,11.90
2019-01-31T23:54:37.155Z,11.90
2019-01-31T23:57:03.400Z,11.90
2019-01-31T23:59:29.607Z,11.90
